Skip Navigation Links
NOAA logo - Click to go to the NOAA homepage
NOAA's National Weather Service
Alaska Aviation Weather Unit
  NWS logo - Click to go to the NWS homepage
Left Navbar Graphic     21 AKDT = 05 GMT

   
NOAA is celebrating 200 years of science, service, and stewardship. Visit the NOAA 200th celebration Web site to learn more.
USA.gov is the U.S. Government's official Web portal to all Federal, state and local government Web resources and services.
Facebook
NWS on Facebook

Important Change Regarding the AAWU Web Presence

 

Over the last several months, the AAWU has been working to navigate its webpages to a nationally supported server. Security, as well as other needs, have necessitated the change.  In the process, we have made an effort to enhance the functionality of our website, as well as some of our products. As of June 27, 2017, aawu.arh.noaa.gov will be discontinued. The new AAWU web address is weather.gov/aawu. It is now live and will run in-parallel with the old site until it is discontinued. Please send any feedback or questions regarding the new webpages to nws.ar.aawu.webauthors@noaa.gov.  Thank you for your patience during this time of transition.
AAWU Home :: Display TAF Add Bookmark
TAF PAGY 242338Z 2500/2524 21006KT P6SM VCSH OVC060
     FM250600 VRB05KT P6SM BKN050 OVC120
     FM251500 VRB05KT P6SM VCSH OVC050
      AMD LTD TO CLD VIS AND WIND=
METAR PAGY 242353Z AUTO 22011KT 10SM OVC055 13/09 A3012 RMK AO2 SLP199
     60004 T01280089 10150 20117 56007 TSNO=

METAR PAGY 250053Z AUTO 21005KT 10SM BKN050 OVC065 13/09 A3011 RMK
 AO2 SLP197 T01330089 TSNO=

METAR PAGY 250153Z AUTO 25008KT 10SM SCT048 OVC065 13/09 A3011 RMK AO2
     RAB0055E10 SLP194 P0000 T01330089 TSNO=

METAR PAGY 250253Z AUTO 00000KT 10SM OVC055 13/09 A3010 RMK AO2 SLP192
     60000 T01330094 57007 TSNO=

METAR PAGY 250353Z AUTO 00000KT 10SM BKN050 OVC070 14/09 A3009 RMK
 AO2 SLP189 T01390094 TSNO=

METAR PAGY 250453Z AUTO 00000KT 10SM BKN050 OVC060 13/10 A3008 RMK AO2
     SLP187 T01280100 TSNO=


NOAA's National Weather Service
Alaska Aviation Weather Unit
6930 Sand Lake Road
Anchorage, AK 99502-1845
Disclaimer
Credits
Glossary
Privacy Policy
About Us
Career Opportunities
Contact AAWU Internet Services Site last modified: April, 17th 2012